QJT9040 ZSPD-ZSSS
Flight info
| Callsign | QJT9040 |
|---|---|
| Flight time | 0h 30m |
| Altitude | 3900 |
| Route | / |
| Aircraft | SA60/L-SDE2E3FGHIJ1RWXY/LB1 |
Departure
| Time | 2026-05-06 13:55 |
|---|---|
| Airport | Shanghai Pudong International Airport (ZSPD) |
Arrival
| Time | 2026-05-06 14:26 |
|---|---|
| Airport | Shanghai Hongqiao International Airport (ZSSS) |
| Time | Latitude | Longitude | Altitude | Speed | Heading |
|---|---|---|---|---|---|
| 2026-05-06 13:33 | 31.15761 | 121.79195 | 16 ft | 0 kts | 72° |
| 2026-05-06 13:51 | 31.15756 | 121.79198 | 16 ft | 5 kts | 210° |
| 2026-05-06 13:52 | 31.15749 | 121.79151 | 16 ft | 7 kts | 251° |
| 2026-05-06 13:52 | 31.15748 | 121.79075 | 16 ft | 14 kts | 317° |
| 2026-05-06 13:52 | 31.15871 | 121.79022 | 16 ft | 22 kts | 343° |
| 2026-05-06 13:52 | 31.16022 | 121.78967 | 17 ft | 24 kts | 340° |
| 2026-05-06 13:53 | 31.16171 | 121.78904 | 16 ft | 17 kts | 314° |
| 2026-05-06 13:53 | 31.16151 | 121.78763 | 17 ft | 20 kts | 252° |
| 2026-05-06 13:53 | 31.16135 | 121.78705 | 17 ft | 0 kts | 254° |
| 2026-05-06 13:54 | 31.16125 | 121.78663 | 16 ft | 13 kts | 253° |
| 2026-05-06 13:54 | 31.16038 | 121.78632 | 16 ft | 19 kts | 162° |
| 2026-05-06 13:54 | 31.15749 | 121.78743 | 84 ft | 60 kts | 153° |
| 2026-05-06 13:54 | 31.15336 | 121.78994 | 263 ft | 70 kts | 154° |
| 2026-05-06 13:55 | 31.14800 | 121.79065 | 384 ft | 89 kts | 194° |
| 2026-05-06 13:55 | 31.14382 | 121.78510 | 590 ft | 99 kts | 249° |
| 2026-05-06 13:55 | 31.14199 | 121.77720 | 794 ft | 101 kts | 246° |
| 2026-05-06 13:55 | 31.14071 | 121.76996 | 1236 ft | 88 kts | 253° |
| 2026-05-06 13:56 | 31.13998 | 121.76259 | 1476 ft | 94 kts | 250° |
| 2026-05-06 13:56 | 31.13896 | 121.75514 | 1963 ft | 85 kts | 250° |
| 2026-05-06 13:56 | 31.13747 | 121.74853 | 2218 ft | 87 kts | 255° |
| 2026-05-06 13:56 | 31.13745 | 121.74149 | 2715 ft | 84 kts | 262° |
| 2026-05-06 13:57 | 31.13660 | 121.73493 | 2983 ft | 84 kts | 250° |
| 2026-05-06 13:57 | 31.13568 | 121.72856 | 3391 ft | 74 kts | 254° |
| 2026-05-06 13:57 | 31.13449 | 121.72278 | 3709 ft | 80 kts | 252° |
| 2026-05-06 13:57 | 31.13303 | 121.71634 | 3874 ft | 90 kts | 255° |
| 2026-05-06 13:58 | 31.13349 | 121.70896 | 3886 ft | 92 kts | 271° |
| 2026-05-06 13:58 | 31.13270 | 121.70137 | 3976 ft | 98 kts | 256° |
| 2026-05-06 13:58 | 31.13147 | 121.69377 | 4173 ft | 93 kts | 258° |
| 2026-05-06 13:58 | 31.13067 | 121.68663 | 4300 ft | 89 kts | 263° |
| 2026-05-06 13:59 | 31.13052 | 121.67933 | 4293 ft | 89 kts | 268° |
| 2026-05-06 13:59 | 31.13217 | 121.67219 | 4202 ft | 99 kts | 302° |
| 2026-05-06 13:59 | 31.13674 | 121.66582 | 4020 ft | 105 kts | 303° |
| 2026-05-06 13:59 | 31.14172 | 121.65908 | 3689 ft | 114 kts | 308° |
| 2026-05-06 14:00 | 31.14696 | 121.65272 | 3842 ft | 107 kts | 310° |
| 2026-05-06 14:00 | 31.15173 | 121.64669 | 3915 ft | 97 kts | 310° |
| 2026-05-06 14:00 | 31.15592 | 121.64113 | 3852 ft | 93 kts | 304° |
| 2026-05-06 14:00 | 31.15998 | 121.63522 | 3822 ft | 82 kts | 304° |
| 2026-05-06 14:01 | 31.16420 | 121.63062 | 3929 ft | 83 kts | 307° |
| 2026-05-06 14:01 | 31.16808 | 121.62539 | 3850 ft | 88 kts | 304° |
| 2026-05-06 14:01 | 31.17229 | 121.62029 | 3922 ft | 87 kts | 311° |
| 2026-05-06 14:01 | 31.17626 | 121.61523 | 3916 ft | 83 kts | 300° |
| 2026-05-06 14:02 | 31.17965 | 121.60993 | 3891 ft | 82 kts | 301° |
| 2026-05-06 14:02 | 31.18321 | 121.60489 | 3859 ft | 80 kts | 303° |
| 2026-05-06 14:02 | 31.18684 | 121.59975 | 3923 ft | 84 kts | 301° |
| 2026-05-06 14:02 | 31.19043 | 121.59439 | 3957 ft | 85 kts | 301° |
| 2026-05-06 14:03 | 31.19410 | 121.58890 | 3902 ft | 84 kts | 300° |
| 2026-05-06 14:03 | 31.19773 | 121.58344 | 3822 ft | 86 kts | 300° |
| 2026-05-06 14:03 | 31.20132 | 121.57792 | 3850 ft | 84 kts | 301° |
| 2026-05-06 14:03 | 31.20497 | 121.57243 | 3865 ft | 86 kts | 301° |
| 2026-05-06 14:04 | 31.20857 | 121.56654 | 3916 ft | 91 kts | 296° |
| 2026-05-06 14:04 | 31.21177 | 121.56040 | 3934 ft | 86 kts | 297° |
| 2026-05-06 14:04 | 31.21506 | 121.55461 | 3980 ft | 84 kts | 293° |
| 2026-05-06 14:04 | 31.21741 | 121.54859 | 3990 ft | 83 kts | 286° |
| 2026-05-06 14:05 | 31.22012 | 121.54218 | 3923 ft | 87 kts | 295° |
| 2026-05-06 14:05 | 31.22349 | 121.53650 | 3963 ft | 85 kts | 298° |
| 2026-05-06 14:05 | 31.22653 | 121.53048 | 3970 ft | 85 kts | 289° |
| 2026-05-06 14:05 | 31.22956 | 121.52415 | 3793 ft | 94 kts | 295° |
| 2026-05-06 14:06 | 31.23295 | 121.51773 | 3700 ft | 92 kts | 293° |
| 2026-05-06 14:06 | 31.23600 | 121.51136 | 3758 ft | 91 kts | 292° |
| 2026-05-06 14:06 | 31.23889 | 121.50449 | 3658 ft | 97 kts | 295° |
| 2026-05-06 14:06 | 31.24174 | 121.49770 | 3633 ft | 92 kts | 291° |
| 2026-05-06 14:07 | 31.24416 | 121.49100 | 3630 ft | 89 kts | 284° |
| 2026-05-06 14:07 | 31.24598 | 121.48470 | 3746 ft | 84 kts | 285° |
| 2026-05-06 14:07 | 31.24807 | 121.47788 | 3856 ft | 91 kts | 286° |
| 2026-05-06 14:07 | 31.25035 | 121.47120 | 4035 ft | 90 kts | 285° |
| 2026-05-06 14:08 | 31.25117 | 121.46437 | 4233 ft | 81 kts | 258° |
| 2026-05-06 14:08 | 31.25218 | 121.45779 | 4365 ft | 83 kts | 274° |
| 2026-05-06 14:08 | 31.25350 | 121.45101 | 4319 ft | 89 kts | 281° |
| 2026-05-06 14:08 | 31.25534 | 121.44432 | 4323 ft | 86 kts | 288° |
| 2026-05-06 14:09 | 31.25771 | 121.43832 | 4365 ft | 79 kts | 288° |
| 2026-05-06 14:09 | 31.26223 | 121.43513 | 4268 ft | 98 kts | 5° |
| 2026-05-06 14:09 | 31.26662 | 121.44125 | 4182 ft | 103 kts | 107° |
| 2026-05-06 14:09 | 31.26144 | 121.44396 | 4105 ft | 89 kts | 208° |
| 2026-05-06 14:10 | 31.25911 | 121.43793 | 4012 ft | 92 kts | 283° |
| 2026-05-06 14:10 | 31.26449 | 121.43407 | 3961 ft | 107 kts | 3° |
| 2026-05-06 14:10 | 31.27036 | 121.43929 | 3850 ft | 114 kts | 63° |
| 2026-05-06 14:10 | 31.27114 | 121.44504 | 3743 ft | 112 kts | 113° |
| 2026-05-06 14:11 | 31.26331 | 121.44743 | 3672 ft | 92 kts | 227° |
| 2026-05-06 14:11 | 31.26462 | 121.44164 | 3847 ft | 95 kts | 332° |
| 2026-05-06 14:11 | 31.26922 | 121.44185 | 3848 ft | 103 kts | 23° |
| 2026-05-06 14:11 | 31.27225 | 121.45114 | 3826 ft | 99 kts | 120° |
| 2026-05-06 14:12 | 31.26883 | 121.45398 | 3778 ft | 89 kts | 183° |
| 2026-05-06 14:12 | 31.26476 | 121.44979 | 3811 ft | 83 kts | 261° |
| 2026-05-06 14:12 | 31.27089 | 121.44526 | 3742 ft | 104 kts | 18° |
| 2026-05-06 14:12 | 31.27397 | 121.44941 | 3764 ft | 103 kts | 80° |
| 2026-05-06 14:13 | 31.27110 | 121.45616 | 3691 ft | 96 kts | 163° |
| 2026-05-06 14:13 | 31.26589 | 121.45394 | 3737 ft | 82 kts | 243° |
| 2026-05-06 14:13 | 31.26713 | 121.44746 | 3720 ft | 94 kts | 311° |
| 2026-05-06 14:13 | 31.27326 | 121.44604 | 3845 ft | 84 kts | 25° |
| 2026-05-06 14:14 | 31.27455 | 121.45216 | 3811 ft | 94 kts | 133° |
| 2026-05-06 14:14 | 31.26908 | 121.45314 | 3804 ft | 86 kts | 221° |
| 2026-05-06 14:14 | 31.26813 | 121.44678 | 3823 ft | 90 kts | 292° |
| 2026-05-06 14:14 | 31.27405 | 121.44373 | 3838 ft | 105 kts | 11° |
| 2026-05-06 14:15 | 31.27866 | 121.45007 | 3903 ft | 105 kts | 87° |
| 2026-05-06 14:15 | 31.27511 | 121.45696 | 3933 ft | 103 kts | 160° |
| 2026-05-06 14:15 | 31.26842 | 121.45675 | 3927 ft | 98 kts | 214° |
| 2026-05-06 14:15 | 31.26625 | 121.44992 | 3930 ft | 97 kts | 284° |
| 2026-05-06 14:16 | 31.27157 | 121.44564 | 3984 ft | 106 kts | 354° |
| 2026-05-06 14:16 | 31.27800 | 121.44946 | 3973 ft | 109 kts | 58° |
| 2026-05-06 14:16 | 31.27899 | 121.45803 | 3936 ft | 108 kts | 112° |
| 2026-05-06 14:16 | 31.27347 | 121.46193 | 3969 ft | 91 kts | 199° |
| 2026-05-06 14:17 | 31.27107 | 121.45646 | 3962 ft | 95 kts | 278° |
| 2026-05-06 14:17 | 31.27581 | 121.45003 | 3737 ft | 114 kts | 341° |
| 2026-05-06 14:17 | 31.28257 | 121.45386 | 3722 ft | 113 kts | 69° |
| 2026-05-06 14:17 | 31.28043 | 121.46108 | 3755 ft | 99 kts | 158° |
| 2026-05-06 14:18 | 31.27423 | 121.46015 | 3755 ft | 96 kts | 225° |
| 2026-05-06 14:18 | 31.27334 | 121.45262 | 3703 ft | 103 kts | 294° |
| 2026-05-06 14:18 | 31.27920 | 121.44780 | 3757 ft | 109 kts | 344° |
| 2026-05-06 14:18 | 31.28615 | 121.45119 | 3786 ft | 113 kts | 56° |
| 2026-05-06 14:19 | 31.28483 | 121.45827 | 3927 ft | 94 kts | 170° |
| 2026-05-06 14:19 | 31.28079 | 121.45403 | 3888 ft | 95 kts | 267° |
| 2026-05-06 14:19 | 31.28136 | 121.44576 | 3659 ft | 109 kts | 268° |
| 2026-05-06 14:19 | 31.28144 | 121.43721 | 3580 ft | 99 kts | 267° |
| 2026-05-06 14:20 | 31.28171 | 121.42936 | 3601 ft | 101 kts | 269° |
| 2026-05-06 14:20 | 31.28251 | 121.42081 | 3596 ft | 109 kts | 274° |
| 2026-05-06 14:20 | 31.28367 | 121.41218 | 3631 ft | 105 kts | 276° |
| 2026-05-06 14:20 | 31.28515 | 121.40387 | 3611 ft | 102 kts | 277° |
| 2026-05-06 14:21 | 31.28659 | 121.39559 | 3631 ft | 105 kts | 274° |
| 2026-05-06 14:21 | 31.28799 | 121.38730 | 3680 ft | 104 kts | 282° |
| 2026-05-06 14:21 | 31.28797 | 121.37910 | 3701 ft | 101 kts | 263° |
| 2026-05-06 14:21 | 31.28730 | 121.37075 | 3656 ft | 105 kts | 254° |
| 2026-05-06 14:22 | 31.28368 | 121.36348 | 3536 ft | 108 kts | 264° |
| 2026-05-06 14:22 | 31.28375 | 121.35373 | 3192 ft | 125 kts | 267° |
| 2026-05-06 14:22 | 31.28414 | 121.34375 | 3059 ft | 125 kts | 266° |
| 2026-05-06 14:22 | 31.28118 | 121.33561 | 2995 ft | 108 kts | 205° |
| 2026-05-06 14:23 | 31.27408 | 121.33399 | 2601 ft | 118 kts | 180° |
| 2026-05-06 14:23 | 31.26614 | 121.33346 | 2396 ft | 102 kts | 180° |
| 2026-05-06 14:23 | 31.25942 | 121.33371 | 2187 ft | 97 kts | 177° |
| 2026-05-06 14:23 | 31.25318 | 121.33374 | 1913 ft | 88 kts | 178° |
| 2026-05-06 14:24 | 31.24703 | 121.33386 | 1506 ft | 86 kts | 177° |
| 2026-05-06 14:24 | 31.24133 | 121.33418 | 1216 ft | 80 kts | 176° |
| 2026-05-06 14:24 | 31.23584 | 121.33398 | 955 ft | 73 kts | 171° |
| 2026-05-06 14:24 | 31.23121 | 121.33457 | 709 ft | 63 kts | 171° |
| 2026-05-06 14:25 | 31.22749 | 121.33476 | 610 ft | 55 kts | 176° |
| 2026-05-06 14:25 | 31.22338 | 121.33468 | 454 ft | 58 kts | 167° |
| 2026-05-06 14:25 | 31.21942 | 121.33505 | 364 ft | 54 kts | 170° |
| 2026-05-06 14:25 | 31.21542 | 121.33526 | 181 ft | 59 kts | 173° |
| 2026-05-06 14:26 | 31.21140 | 121.33554 | 42 ft | 56 kts | 173° |
| 2026-05-06 14:26 | 31.20804 | 121.33572 | 25 ft | 46 kts | 174° |
| 2026-05-06 14:26 | 31.20499 | 121.33591 | 21 ft | 45 kts | 171° |
| 2026-05-06 14:26 | 31.20160 | 121.33612 | 32 ft | 49 kts | 174° |
| 2026-05-06 14:27 | 31.19910 | 121.33632 | 12 ft | 14 kts | 161° |
| 2026-05-06 14:27 | 31.19884 | 121.33728 | 12 ft | 13 kts | 87° |
| 2026-05-06 14:27 | 31.19888 | 121.33833 | 12 ft | 14 kts | 88° |
| 2026-05-06 14:27 | 31.19894 | 121.33946 | 12 ft | 14 kts | 80° |
| 2026-05-06 14:28 | 31.19929 | 121.34038 | 12 ft | 14 kts | 353° |
| 2026-05-06 14:28 | 31.20019 | 121.34057 | 12 ft | 15 kts | 81° |
| 2026-05-06 14:28 | 31.20024 | 121.34168 | 12 ft | 13 kts | 89° |
| 2026-05-06 14:28 | 31.19963 | 121.34195 | 12 ft | 5 kts | 176° |
| 2026-05-06 14:29 | 31.19962 | 121.34195 | 12 ft | 0 kts | 176° |